Strona główna
METAR-TAF:

METAR-TAF

Lotnisko :

Port lotniczy Girona

Girona, Hiszpania

Szerokość geograficzna: 41-54N, Długość geograficzna: 002-46E, wysokość: 143 m

Aktualna obserwacja pogody

Raport powstał 21 minut temu, godzina 16:30 UTC
Cisza
Temperatura 14°C
Wilgotność 55%
Ciśnienie 1020 hPa
Widzialność 10 km lub więcej
Mało chmury na wysokości 5000 ft

METAR: LEGE 271630Z 00000KT 9999 FEW050 14/05 Q1020

czas: 17:51 (16:51 UTC)

Prognoza

Raport powstał 5 godziny i 51 minut temu, godzina 11:00 UTC
Prognoza ważna od 27 godzina 12 UTC do 28 godzina 12 UTC
Wiatr 4 kt z kierunków zmiennych
Widzialność 10 km lub więcej
Mało chmury na wysokości 5000 ft
Prawdopodobieństwo 30% :
Przejściowo
od 27 godzina 14 UTC do 27 godzina 18 UTC
Wiatr 10 kt od południe

TAF: LEGE 271100Z 2712/2812 VRB04KT 9999 FEW050 TX18/2713Z TN06/2806Z PROB30 TEMPO 2714/2718 19010KT

Obserwacja i prognoza pogody dla ponad 4000 lotnisk (raport METAR i TAF).

Dostępne stacje oznaczono żółtymi i czerwonymi punktami na mapie.

Najedź kursorem aby zobaczyć nazwę stacji.

Kliknij aby zobaczyć obserwacje i prognozy pogody.

Aby zmienić mapę: kliknij na zielony przycisk z czarnym krzyżykiem, aby powiększyć; na zielony przycisk z myślnikiem, aby pomniejszyć; na zielone strzałki, aby przejść do map sąsiednich.


METAR-TAF: